sensor_id;sensor_type;location;lat;lon;timestamp;P1;durP1;ratioP1;P2;durP2;ratioP2
12222;SDS011;6174;49.058;8.524;2022-11-14T05:00:15;13.70;;;12.23;;
12222;SDS011;6174;49.058;8.524;2022-11-14T05:02:42;15.27;;;12.53;;
12222;SDS011;6174;49.058;8.524;2022-11-14T05:05:09;13.80;;;12.40;;
12222;SDS011;6174;49.058;8.524;2022-11-14T05:07:36;13.50;;;12.07;;
12222;SDS011;6174;49.058;8.524;2022-11-14T05:10:03;13.20;;;11.97;;
12222;SDS011;6174;49.058;8.524;2022-11-14T05:12:30;12.43;;;11.23;;
12222;SDS011;6174;49.058;8.524;2022-11-14T05:14:57;13.87;;;12.47;;
12222;SDS011;6174;49.058;8.524;2022-11-14T05:17:25;12.47;;;11.27;;
12222;SDS011;6174;49.058;8.524;2022-11-14T05:19:53;13.20;;;11.77;;
12222;SDS011;6174;49.058;8.524;2022-11-14T05:22:19;12.37;;;11.17;;
12222;SDS011;6174;49.058;8.524;2022-11-14T05:24:46;11.60;;;10.53;;
12222;SDS011;6174;49.058;8.524;2022-11-14T05:27:13;11.57;;;10.37;;
12222;SDS011;6174;49.058;8.524;2022-11-14T05:29:39;11.80;;;10.57;;
12222;SDS011;6174;49.058;8.524;2022-11-14T05:32:06;11.10;;;10.00;;
12222;SDS011;6174;49.058;8.524;2022-11-14T05:34:34;11.60;;;10.50;;
12222;SDS011;6174;49.058;8.524;2022-11-14T05:37:01;10.60;;;9.60;;
12222;SDS011;6174;49.058;8.524;2022-11-14T05:39:28;11.17;;;10.07;;
12222;SDS011;6174;49.058;8.524;2022-11-14T05:41:55;10.63;;;9.53;;
12222;SDS011;6174;49.058;8.524;2022-11-14T05:44:22;10.83;;;9.87;;
12222;SDS011;6174;49.058;8.524;2022-11-14T05:46:48;10.87;;;9.87;;
12222;SDS011;6174;49.058;8.524;2022-11-14T05:49:15;11.10;;;10.10;;
12222;SDS011;6174;49.058;8.524;2022-11-14T05:51:43;10.23;;;9.33;;
12222;SDS011;6174;49.058;8.524;2022-11-14T05:54:10;9.97;;;9.07;;
12222;SDS011;6174;49.058;8.524;2022-11-14T05:56:36;10.13;;;8.60;;
12222;SDS011;6174;49.058;8.524;2022-11-14T05:59:03;9.80;;;8.87;;
12222;SDS011;6174;49.058;8.524;2022-11-14T06:01:30;13.83;;;12.43;;
12222;SDS011;6174;49.058;8.524;2022-11-14T06:03:57;11.00;;;9.90;;
12222;SDS011;6174;49.058;8.524;2022-11-14T06:06:24;10.83;;;9.83;;
12222;SDS011;6174;49.058;8.524;2022-11-14T06:08:52;11.00;;;10.00;;
12222;SDS011;6174;49.058;8.524;2022-11-14T06:11:19;9.50;;;8.60;;
12222;SDS011;6174;49.058;8.524;2022-11-14T06:13:46;9.53;;;8.63;;
12222;SDS011;6174;49.058;8.524;2022-11-14T06:16:15;9.93;;;9.03;;
12222;SDS011;6174;49.058;8.524;2022-11-14T06:18:43;9.83;;;8.93;;
12222;SDS011;6174;49.058;8.524;2022-11-14T06:21:11;8.93;;;8.13;;
12222;SDS011;6174;49.058;8.524;2022-11-14T06:23:40;9.33;;;8.53;;
12222;SDS011;6174;49.058;8.524;2022-11-14T06:26:11;8.97;;;8.17;;
12222;SDS011;6174;49.058;8.524;2022-11-14T06:28:40;8.53;;;7.83;;
12222;SDS011;6174;49.058;8.524;2022-11-14T06:31:07;8.57;;;7.80;;
12222;SDS011;6174;49.058;8.524;2022-11-14T06:33:34;9.23;;;8.43;;
12222;SDS011;6174;49.058;8.524;2022-11-14T06:36:02;9.23;;;8.33;;
12222;SDS011;6174;49.058;8.524;2022-11-14T06:38:30;8.90;;;8.10;;
12222;SDS011;6174;49.058;8.524;2022-11-14T06:41:02;8.83;;;8.03;;
12222;SDS011;6174;49.058;8.524;2022-11-14T06:43:32;9.90;;;9.00;;
12222;SDS011;6174;49.058;8.524;2022-11-14T06:45:59;8.20;;;7.50;;
12222;SDS011;6174;49.058;8.524;2022-11-14T06:48:26;9.20;;;8.30;;
12222;SDS011;6174;49.058;8.524;2022-11-14T06:50:54;8.97;;;8.17;;
12222;SDS011;6174;49.058;8.524;2022-11-14T06:53:22;8.50;;;7.80;;
12222;SDS011;6174;49.058;8.524;2022-11-14T06:55:53;9.30;;;8.47;;
12222;SDS011;6174;49.058;8.524;2022-11-14T06:58:21;9.30;;;8.40;;
12222;SDS011;6174;49.058;8.524;2022-11-14T07:00:51;9.67;;;8.77;;
12222;SDS011;6174;49.058;8.524;2022-11-14T07:03:18;9.87;;;8.87;;
12222;SDS011;6174;49.058;8.524;2022-11-14T07:05:45;10.73;;;9.63;;
12222;SDS011;6174;49.058;8.524;2022-11-14T07:08:13;10.83;;;9.73;;
12222;SDS011;6174;49.058;8.524;2022-11-14T07:10:40;15.43;;;13.70;;
12222;SDS011;6174;49.058;8.524;2022-11-14T07:13:06;15.47;;;13.97;;
12222;SDS011;6174;49.058;8.524;2022-11-14T07:15:35;12.13;;;11.00;;
12222;SDS011;6174;49.058;8.524;2022-11-14T07:18:05;10.63;;;9.70;;
12222;SDS011;6174;49.058;8.524;2022-11-14T07:20:32;10.60;;;9.50;;
12222;SDS011;6174;49.058;8.524;2022-11-14T07:22:58;9.37;;;8.37;;
12222;SDS011;6174;49.058;8.524;2022-11-14T07:25:25;9.77;;;8.77;;
12222;SDS011;6174;49.058;8.524;2022-11-14T07:27:52;9.30;;;8.40;;
12222;SDS011;6174;49.058;8.524;2022-11-14T07:30:19;8.70;;;7.80;;
12222;SDS011;6174;49.058;8.524;2022-11-14T07:32:46;10.10;;;9.10;;
12222;SDS011;6174;49.058;8.524;2022-11-14T07:35:20;9.70;;;8.80;;
12222;SDS011;6174;49.058;8.524;2022-11-14T07:37:47;9.90;;;9.00;;
12222;SDS011;6174;49.058;8.524;2022-11-14T07:40:14;9.97;;;9.07;;
12222;SDS011;6174;49.058;8.524;2022-11-14T07:42:41;8.87;;;7.97;;
12222;SDS011;6174;49.058;8.524;2022-11-14T07:45:08;10.60;;;9.60;;
12222;SDS011;6174;49.058;8.524;2022-11-14T07:47:36;11.00;;;9.90;;
12222;SDS011;6174;49.058;8.524;2022-11-14T07:50:03;10.57;;;9.47;;
12222;SDS011;6174;49.058;8.524;2022-11-14T07:52:31;9.63;;;8.73;;
12222;SDS011;6174;49.058;8.524;2022-11-14T07:54:58;8.73;;;7.90;;
12222;SDS011;6174;49.058;8.524;2022-11-14T07:57:25;8.13;;;7.43;;
12222;SDS011;6174;49.058;8.524;2022-11-14T07:59:51;10.93;;;9.93;;
12222;SDS011;6174;49.058;8.524;2022-11-14T08:02:18;9.00;;;8.10;;
12222;SDS011;6174;49.058;8.524;2022-11-14T08:04:45;10.23;;;8.83;;
12222;SDS011;6174;49.058;8.524;2022-11-14T08:07:12;9.20;;;8.30;;
12222;SDS011;6174;49.058;8.524;2022-11-14T08:09:40;8.97;;;8.13;;
12222;SDS011;6174;49.058;8.524;2022-11-14T08:12:07;8.30;;;7.60;;
12222;SDS011;6174;49.058;8.524;2022-11-14T08:14:33;12.63;;;9.73;;
12222;SDS011;6174;49.058;8.524;2022-11-14T08:17:00;9.27;;;8.37;;
12222;SDS011;6174;49.058;8.524;2022-11-14T08:19:27;11.00;;;9.90;;
12222;SDS011;6174;49.058;8.524;2022-11-14T08:21:54;9.67;;;8.77;;
12222;SDS011;6174;49.058;8.524;2022-11-14T08:24:21;8.87;;;8.07;;
12222;SDS011;6174;49.058;8.524;2022-11-14T08:26:49;8.97;;;8.13;;
12222;SDS011;6174;49.058;8.524;2022-11-14T08:29:16;9.10;;;8.30;;
12222;SDS011;6174;49.058;8.524;2022-11-14T08:31:42;8.87;;;8.10;;
12222;SDS011;6174;49.058;8.524;2022-11-14T08:34:11;8.53;;;7.73;;
12222;SDS011;6174;49.058;8.524;2022-11-14T08:36:37;8.33;;;7.50;;
12222;SDS011;6174;49.058;8.524;2022-11-14T08:39:04;8.80;;;7.97;;
12222;SDS011;6174;49.058;8.524;2022-11-14T08:41:31;8.63;;;7.80;;
12222;SDS011;6174;49.058;8.524;2022-11-14T08:43:59;8.70;;;7.90;;
12222;SDS011;6174;49.058;8.524;2022-11-14T08:46:26;8.90;;;8.10;;
12222;SDS011;6174;49.058;8.524;2022-11-14T08:48:53;9.23;;;7.80;;
12222;SDS011;6174;49.058;8.524;2022-11-14T08:51:19;8.50;;;7.70;;
12222;SDS011;6174;49.058;8.524;2022-11-14T08:53:46;8.77;;;7.97;;
12222;SDS011;6174;49.058;8.524;2022-11-14T08:56:13;7.70;;;7.00;;
12222;SDS011;6174;49.058;8.524;2022-11-14T08:58:40;8.93;;;8.03;;
12222;SDS011;6174;49.058;8.524;2022-11-14T09:01:08;8.80;;;7.70;;
12222;SDS011;6174;49.058;8.524;2022-11-14T09:03:37;7.57;;;6.97;;
12222;SDS011;6174;49.058;8.524;2022-11-14T09:06:04;8.13;;;7.43;;
12222;SDS011;6174;49.058;8.524;2022-11-14T09:08:31;8.17;;;7.47;;
12222;SDS011;6174;49.058;8.524;2022-11-14T09:11:01;7.93;;;7.23;;
12222;SDS011;6174;49.058;8.524;2022-11-14T09:13:30;7.53;;;6.83;;
12222;SDS011;6174;49.058;8.524;2022-11-14T09:15:58;7.67;;;6.97;;
12222;SDS011;6174;49.058;8.524;2022-11-14T09:18:26;7.10;;;6.50;;
12222;SDS011;6174;49.058;8.524;2022-11-14T09:20:57;9.90;;;6.80;;
12222;SDS011;6174;49.058;8.524;2022-11-14T09:23:25;7.73;;;7.13;;
12222;SDS011;6174;49.058;8.524;2022-11-14T09:25:52;8.10;;;7.30;;
12222;SDS011;6174;49.058;8.524;2022-11-14T09:28:21;7.70;;;6.90;;
12222;SDS011;6174;49.058;8.524;2022-11-14T09:30:47;7.10;;;6.50;;
12222;SDS011;6174;49.058;8.524;2022-11-14T09:33:15;7.60;;;6.90;;
12222;SDS011;6174;49.058;8.524;2022-11-14T09:35:43;6.90;;;6.30;;
12222;SDS011;6174;49.058;8.524;2022-11-14T09:38:10;7.47;;;6.77;;
12222;SDS011;6174;49.058;8.524;2022-11-14T09:40:41;7.33;;;6.73;;
12222;SDS011;6174;49.058;8.524;2022-11-14T09:43:22;6.43;;;5.93;;
12222;SDS011;6174;49.058;8.524;2022-11-14T09:46:00;7.53;;;6.83;;
12222;SDS011;6174;49.058;8.524;2022-11-14T09:48:28;7.10;;;6.50;;
12222;SDS011;6174;49.058;8.524;2022-11-14T09:51:02;7.20;;;6.60;;
12222;SDS011;6174;49.058;8.524;2022-11-14T09:53:33;7.80;;;6.60;;
12222;SDS011;6174;49.058;8.524;2022-11-14T09:56:02;7.27;;;6.50;;
12222;SDS011;6174;49.058;8.524;2022-11-14T09:58:29;7.07;;;6.47;;
12222;SDS011;6174;49.058;8.524;2022-11-14T10:00:57;6.90;;;6.30;;
12222;SDS011;6174;49.058;8.524;2022-11-14T10:03:32;8.80;;;7.90;;
12222;SDS011;6174;49.058;8.524;2022-11-14T10:06:14;7.43;;;6.73;;
12222;SDS011;6174;49.058;8.524;2022-11-14T10:08:50;7.83;;;6.90;;
12222;SDS011;6174;49.058;8.524;2022-11-14T10:11:31;13.40;;;9.80;;
12222;SDS011;6174;49.058;8.524;2022-11-14T10:14:07;8.60;;;7.60;;
12222;SDS011;6174;49.058;8.524;2022-11-14T10:17:01;9.53;;;7.93;;
12222;SDS011;6174;49.058;8.524;2022-11-14T10:19:41;8.00;;;6.93;;
12222;SDS011;6174;49.058;8.524;2022-11-14T10:22:17;8.13;;;6.73;;
12222;SDS011;6174;49.058;8.524;2022-11-14T10:25:00;8.20;;;7.40;;
12222;SDS011;6174;49.058;8.524;2022-11-14T10:27:41;7.73;;;7.03;;
12222;SDS011;6174;49.058;8.524;2022-11-14T10:30:15;8.60;;;7.70;;
12222;SDS011;6174;49.058;8.524;2022-11-14T10:32:49;7.43;;;6.73;;
12222;SDS011;6174;49.058;8.524;2022-11-14T10:35:35;7.13;;;6.53;;
12222;SDS011;6174;49.058;8.524;2022-11-14T10:38:08;7.07;;;6.40;;
12222;SDS011;6174;49.058;8.524;2022-11-14T10:40:41;7.20;;;6.50;;
12222;SDS011;6174;49.058;8.524;2022-11-14T10:43:20;9.47;;;8.57;;
12222;SDS011;6174;49.058;8.524;2022-11-14T10:45:52;8.20;;;7.50;;
12222;SDS011;6174;49.058;8.524;2022-11-14T10:48:24;9.03;;;7.43;;
12222;SDS011;6174;49.058;8.524;2022-11-14T10:50:56;8.83;;;7.93;;
12222;SDS011;6174;49.058;8.524;2022-11-14T10:53:27;9.17;;;8.23;;
12222;SDS011;6174;49.058;8.524;2022-11-14T10:56:03;8.60;;;7.70;;
12222;SDS011;6174;49.058;8.524;2022-11-14T10:58:30;8.67;;;7.77;;
12222;SDS011;6174;49.058;8.524;2022-11-14T11:00:57;10.90;;;8.13;;
12222;SDS011;6174;49.058;8.524;2022-11-14T11:06:51;9.30;;;8.00;;
12222;SDS011;6174;49.058;8.524;2022-11-14T11:09:20;10.07;;;8.97;;
12222;SDS011;6174;49.058;8.524;2022-11-14T11:12:08;9.27;;;8.37;;
12222;SDS011;6174;49.058;8.524;2022-11-14T11:14:41;11.03;;;8.80;;
12222;SDS011;6174;49.058;8.524;2022-11-14T11:17:21;9.83;;;8.33;;
12222;SDS011;6174;49.058;8.524;2022-11-14T11:19:48;7.70;;;6.77;;
12222;SDS011;6174;49.058;8.524;2022-11-14T11:22:22;9.33;;;6.87;;
12222;SDS011;6174;49.058;8.524;2022-11-14T11:25:00;10.10;;;7.00;;
12222;SDS011;6174;49.058;8.524;2022-11-14T11:27:27;7.47;;;6.20;;
12222;SDS011;6174;49.058;8.524;2022-11-14T11:30:00;8.53;;;7.73;;
12222;SDS011;6174;49.058;8.524;2022-11-14T11:32:44;9.20;;;8.30;;
12222;SDS011;6174;49.058;8.524;2022-11-14T11:35:11;6.67;;;5.93;;
12222;SDS011;6174;49.058;8.524;2022-11-14T11:37:41;8.23;;;6.70;;
12222;SDS011;6174;49.058;8.524;2022-11-14T11:40:13;7.47;;;6.27;;
12222;SDS011;6174;49.058;8.524;2022-11-14T11:42:45;7.80;;;7.10;;
12222;SDS011;6174;49.058;8.524;2022-11-14T11:45:17;7.57;;;6.77;;
12222;SDS011;6174;49.058;8.524;2022-11-14T11:47:47;9.53;;;7.00;;
12222;SDS011;6174;49.058;8.524;2022-11-14T11:50:19;7.90;;;7.10;;
12222;SDS011;6174;49.058;8.524;2022-11-14T11:52:49;7.20;;;6.60;;
12222;SDS011;6174;49.058;8.524;2022-11-14T11:55:24;7.97;;;6.97;;
12222;SDS011;6174;49.058;8.524;2022-11-14T11:57:55;7.90;;;6.60;;
12222;SDS011;6174;49.058;8.524;2022-11-14T12:00:27;7.07;;;6.47;;
12222;SDS011;6174;49.058;8.524;2022-11-14T12:02:55;8.20;;;7.50;;
12222;SDS011;6174;49.058;8.524;2022-11-14T12:05:24;8.03;;;7.30;;
12222;SDS011;6174;49.058;8.524;2022-11-14T12:07:57;6.90;;;6.30;;
12222;SDS011;6174;49.058;8.524;2022-11-14T12:10:29;6.73;;;6.13;;
12222;SDS011;6174;49.058;8.524;2022-11-14T12:13:20;7.70;;;7.00;;
12222;SDS011;6174;49.058;8.524;2022-11-14T12:16:21;7.73;;;7.03;;
12222;SDS011;6174;49.058;8.524;2022-11-14T12:25:07;8.50;;;7.80;;
12222;SDS011;6174;49.058;8.524;2022-11-14T12:27:59;7.77;;;6.97;;
12222;SDS011;6174;49.058;8.524;2022-11-14T12:30:36;8.10;;;7.40;;
12222;SDS011;6174;49.058;8.524;2022-11-14T12:33:06;8.73;;;8.00;;
12222;SDS011;6174;49.058;8.524;2022-11-14T12:35:38;7.60;;;6.90;;
12222;SDS011;6174;49.058;8.524;2022-11-14T12:38:15;7.90;;;7.20;;
12222;SDS011;6174;49.058;8.524;2022-11-14T12:40:47;8.13;;;7.43;;
12222;SDS011;6174;49.058;8.524;2022-11-14T12:43:27;8.37;;;7.67;;
12222;SDS011;6174;49.058;8.524;2022-11-14T12:45:58;8.47;;;7.77;;
12222;SDS011;6174;49.058;8.524;2022-11-14T12:48:28;9.37;;;8.47;;
12222;SDS011;6174;49.058;8.524;2022-11-14T12:51:01;9.60;;;8.60;;
12222;SDS011;6174;49.058;8.524;2022-11-14T12:53:39;9.47;;;8.50;;
12222;SDS011;6174;49.058;8.524;2022-11-14T12:59:17;7.50;;;6.80;;
12222;SDS011;6174;49.058;8.524;2022-11-14T13:08:25;8.07;;;7.37;;
12222;SDS011;6174;49.058;8.524;2022-11-14T13:11:39;8.20;;;7.40;;
12222;SDS011;6174;49.058;8.524;2022-11-14T13:14:25;8.10;;;7.40;;
12222;SDS011;6174;49.058;8.524;2022-11-14T13:17:14;7.90;;;7.20;;
12222;SDS011;6174;49.058;8.524;2022-11-14T13:26:40;7.83;;;7.13;;
12222;SDS011;6174;49.058;8.524;2022-11-14T13:35:31;7.50;;;6.80;;
12222;SDS011;6174;49.058;8.524;2022-11-14T13:41:17;7.93;;;7.00;;
12222;SDS011;6174;49.058;8.524;2022-11-14T13:43:58;8.50;;;7.80;;
12222;SDS011;6174;49.058;8.524;2022-11-14T13:46:43;8.07;;;7.30;;
12222;SDS011;6174;49.058;8.524;2022-11-14T13:49:28;8.30;;;7.37;;
12222;SDS011;6174;49.058;8.524;2022-11-14T13:52:04;7.77;;;7.07;;
12222;SDS011;6174;49.058;8.524;2022-11-14T13:54:31;7.67;;;6.87;;
12222;SDS011;6174;49.058;8.524;2022-11-14T13:57:01;8.23;;;7.43;;
12222;SDS011;6174;49.058;8.524;2022-11-14T13:59:53;8.20;;;7.40;;
12222;SDS011;6174;49.058;8.524;2022-11-14T14:02:37;9.60;;;8.70;;
12222;SDS011;6174;49.058;8.524;2022-11-14T14:05:29;9.60;;;8.73;;
12222;SDS011;6174;49.058;8.524;2022-11-14T14:08:13;8.47;;;7.47;;
12222;SDS011;6174;49.058;8.524;2022-11-14T14:10:53;10.30;;;8.10;;
12222;SDS011;6174;49.058;8.524;2022-11-14T14:13:30;12.20;;;10.97;;
12222;SDS011;6174;49.058;8.524;2022-11-14T14:16:09;10.07;;;9.03;;
12222;SDS011;6174;49.058;8.524;2022-11-14T14:18:43;10.40;;;9.30;;
12222;SDS011;6174;49.058;8.524;2022-11-14T14:21:35;9.30;;;8.40;;
12222;SDS011;6174;49.058;8.524;2022-11-14T14:24:12;10.00;;;9.00;;
12222;SDS011;6174;49.058;8.524;2022-11-14T14:27:00;9.70;;;8.77;;
12222;SDS011;6174;49.058;8.524;2022-11-14T14:29:38;10.23;;;8.57;;
12222;SDS011;6174;49.058;8.524;2022-11-14T14:32:14;8.97;;;7.70;;
12222;SDS011;6174;49.058;8.524;2022-11-14T14:34:42;8.93;;;8.03;;
12222;SDS011;6174;49.058;8.524;2022-11-14T14:37:18;9.87;;;8.87;;
12222;SDS011;6174;49.058;8.524;2022-11-14T14:39:56;13.53;;;11.90;;
12222;SDS011;6174;49.058;8.524;2022-11-14T14:42:24;11.23;;;9.87;;
12222;SDS011;6174;49.058;8.524;2022-11-14T14:44:52;10.20;;;9.20;;
12222;SDS011;6174;49.058;8.524;2022-11-14T14:47:31;10.00;;;9.00;;
12222;SDS011;6174;49.058;8.524;2022-11-14T14:50:07;9.50;;;8.60;;
12222;SDS011;6174;49.058;8.524;2022-11-14T14:52:41;9.73;;;8.83;;
12222;SDS011;6174;49.058;8.524;2022-11-14T14:55:17;9.13;;;8.20;;
12222;SDS011;6174;49.058;8.524;2022-11-14T14:57:45;9.17;;;8.37;;
12222;SDS011;6174;49.058;8.524;2022-11-14T15:00:16;9.50;;;8.57;;
12222;SDS011;6174;49.058;8.524;2022-11-14T15:02:47;9.43;;;8.53;;
12222;SDS011;6174;49.058;8.524;2022-11-14T15:05:20;11.43;;;10.23;;
12222;SDS011;6174;49.058;8.524;2022-11-14T15:07:47;12.27;;;9.20;;
12222;SDS011;6174;49.058;8.524;2022-11-14T15:10:18;12.67;;;11.13;;
12222;SDS011;6174;49.058;8.524;2022-11-14T15:12:47;17.13;;;13.70;;
12222;SDS011;6174;49.058;8.524;2022-11-14T15:15:14;15.83;;;12.20;;
12222;SDS011;6174;49.058;8.524;2022-11-14T15:17:42;12.83;;;11.40;;
12222;SDS011;6174;49.058;8.524;2022-11-14T15:20:20;13.90;;;11.43;;
12222;SDS011;6174;49.058;8.524;2022-11-14T15:23:00;12.37;;;11.07;;
12222;SDS011;6174;49.058;8.524;2022-11-14T15:25:28;11.67;;;10.47;;
12222;SDS011;6174;49.058;8.524;2022-11-14T15:27:56;11.27;;;10.17;;
12222;SDS011;6174;49.058;8.524;2022-11-14T15:30:25;10.63;;;9.53;;
12222;SDS011;6174;49.058;8.524;2022-11-14T15:32:55;12.10;;;10.70;;
12222;SDS011;6174;49.058;8.524;2022-11-14T15:35:25;11.03;;;9.93;;
12222;SDS011;6174;49.058;8.524;2022-11-14T15:38:01;13.43;;;10.17;;
12222;SDS011;6174;49.058;8.524;2022-11-14T15:40:32;12.00;;;10.73;;
12222;SDS011;6174;49.058;8.524;2022-11-14T15:46:01;10.23;;;9.23;;
12222;SDS011;6174;49.058;8.524;2022-11-14T15:48:28;10.67;;;9.57;;
12222;SDS011;6174;49.058;8.524;2022-11-14T15:50:57;9.93;;;8.93;;
12222;SDS011;6174;49.058;8.524;2022-11-14T15:53:24;11.57;;;10.47;;
12222;SDS011;6174;49.058;8.524;2022-11-14T15:55:54;10.23;;;9.17;;
12222;SDS011;6174;49.058;8.524;2022-11-14T15:58:20;10.47;;;9.00;;
12222;SDS011;6174;49.058;8.524;2022-11-14T16:00:48;11.80;;;9.70;;
12222;SDS011;6174;49.058;8.524;2022-11-14T16:03:18;12.33;;;10.60;;
12222;SDS011;6174;49.058;8.524;2022-11-14T16:05:46;17.90;;;16.10;;
12222;SDS011;6174;49.058;8.524;2022-11-14T16:08:15;12.40;;;11.13;;
12222;SDS011;6174;49.058;8.524;2022-11-14T16:10:41;10.70;;;9.57;;
12222;SDS011;6174;49.058;8.524;2022-11-14T16:13:08;12.40;;;10.37;;
12222;SDS011;6174;49.058;8.524;2022-11-14T16:15:36;13.33;;;10.70;;
12222;SDS011;6174;49.058;8.524;2022-11-14T16:18:03;11.67;;;10.57;;
12222;SDS011;6174;49.058;8.524;2022-11-14T16:20:30;11.97;;;10.57;;
12222;SDS011;6174;49.058;8.524;2022-11-14T16:23:02;11.07;;;10.07;;
12222;SDS011;6174;49.058;8.524;2022-11-14T16:25:31;9.83;;;8.83;;
12222;SDS011;6174;49.058;8.524;2022-11-14T16:27:58;9.73;;;8.80;;
12222;SDS011;6174;49.058;8.524;2022-11-14T16:30:25;10.40;;;9.13;;
12222;SDS011;6174;49.058;8.524;2022-11-14T16:32:52;12.53;;;10.10;;
12222;SDS011;6174;49.058;8.524;2022-11-14T16:35:19;10.27;;;9.23;;
12222;SDS011;6174;49.058;8.524;2022-11-14T16:37:48;12.17;;;10.97;;
12222;SDS011;6174;49.058;8.524;2022-11-14T16:40:16;11.73;;;9.97;;
12222;SDS011;6174;49.058;8.524;2022-11-14T16:42:47;10.60;;;9.50;;
12222;SDS011;6174;49.058;8.524;2022-11-14T16:45:14;20.67;;;13.17;;
12222;SDS011;6174;49.058;8.524;2022-11-14T16:47:41;14.43;;;11.00;;
12222;SDS011;6174;49.058;8.524;2022-11-14T16:50:08;11.80;;;10.60;;
12222;SDS011;6174;49.058;8.524;2022-11-14T16:52:36;10.83;;;9.80;;
12222;SDS011;6174;49.058;8.524;2022-11-14T16:55:03;11.73;;;10.27;;
12222;SDS011;6174;49.058;8.524;2022-11-14T16:57:31;10.73;;;9.63;;
12222;SDS011;6174;49.058;8.524;2022-11-14T16:59:59;11.00;;;9.27;;
12222;SDS011;6174;49.058;8.524;2022-11-14T17:02:26;10.13;;;9.03;;
12222;SDS011;6174;49.058;8.524;2022-11-14T17:04:53;10.87;;;9.80;;
12222;SDS011;6174;49.058;8.524;2022-11-14T17:07:20;10.50;;;9.43;;
12222;SDS011;6174;49.058;8.524;2022-11-14T17:09:46;12.90;;;10.33;;
12222;SDS011;6174;49.058;8.524;2022-11-14T17:12:13;12.33;;;10.47;;
12222;SDS011;6174;49.058;8.524;2022-11-14T17:14:40;10.67;;;9.50;;
12222;SDS011;6174;49.058;8.524;2022-11-14T17:17:09;11.83;;;9.57;;
12222;SDS011;6174;49.058;8.524;2022-11-14T17:19:35;12.57;;;11.37;;
12222;SDS011;6174;49.058;8.524;2022-11-14T17:22:09;11.57;;;10.47;;
12222;SDS011;6174;49.058;8.524;2022-11-14T17:24:36;11.47;;;10.27;;
12222;SDS011;6174;49.058;8.524;2022-11-14T17:27:03;15.23;;;12.80;;
12222;SDS011;6174;49.058;8.524;2022-11-14T17:29:29;12.67;;;11.40;;
12222;SDS011;6174;49.058;8.524;2022-11-14T17:31:56;12.50;;;10.67;;
12222;SDS011;6174;49.058;8.524;2022-11-14T17:34:24;12.73;;;11.53;;
12222;SDS011;6174;49.058;8.524;2022-11-14T17:36:51;12.63;;;11.33;;
12222;SDS011;6174;49.058;8.524;2022-11-14T17:39:18;12.53;;;11.37;;
12222;SDS011;6174;49.058;8.524;2022-11-14T17:41:45;13.03;;;11.63;;
12222;SDS011;6174;49.058;8.524;2022-11-14T17:44:11;13.03;;;11.80;;
12222;SDS011;6174;49.058;8.524;2022-11-14T17:46:38;12.73;;;11.57;;
12222;SDS011;6174;49.058;8.524;2022-11-14T17:49:05;11.87;;;10.67;;
12222;SDS011;6174;49.058;8.524;2022-11-14T17:51:33;10.40;;;8.93;;
12222;SDS011;6174;49.058;8.524;2022-11-14T17:54:00;14.10;;;12.70;;
12222;SDS011;6174;49.058;8.524;2022-11-14T17:56:26;12.50;;;11.30;;
12222;SDS011;6174;49.058;8.524;2022-11-14T17:58:53;12.30;;;11.20;;
12222;SDS011;6174;49.058;8.524;2022-11-14T18:01:21;13.23;;;9.83;;
12222;SDS011;6174;49.058;8.524;2022-11-14T18:03:57;12.20;;;11.10;;
12222;SDS011;6174;49.058;8.524;2022-11-14T18:06:23;10.10;;;9.20;;
12222;SDS011;6174;49.058;8.524;2022-11-14T18:08:52;9.33;;;8.43;;
12222;SDS011;6174;49.058;8.524;2022-11-14T18:11:19;9.03;;;8.13;;
12222;SDS011;6174;49.058;8.524;2022-11-14T18:13:46;9.73;;;8.73;;
12222;SDS011;6174;49.058;8.524;2022-11-14T18:16:14;7.37;;;6.73;;
12222;SDS011;6174;49.058;8.524;2022-11-14T18:18:42;7.67;;;6.87;;
12222;SDS011;6174;49.058;8.524;2022-11-14T18:21:11;8.43;;;7.37;;
12222;SDS011;6174;49.058;8.524;2022-11-14T18:23:39;7.40;;;6.73;;
12222;SDS011;6174;49.058;8.524;2022-11-14T18:26:10;7.47;;;6.77;;
12222;SDS011;6174;49.058;8.524;2022-11-14T18:28:38;7.87;;;6.70;;
12222;SDS011;6174;49.058;8.524;2022-11-14T18:31:05;8.57;;;6.80;;
12222;SDS011;6174;49.058;8.524;2022-11-14T18:33:34;7.27;;;6.57;;
12222;SDS011;6174;49.058;8.524;2022-11-14T18:36:02;7.17;;;6.47;;
12222;SDS011;6174;49.058;8.524;2022-11-14T18:38:29;7.87;;;7.07;;
12222;SDS011;6174;49.058;8.524;2022-11-14T18:40:57;8.20;;;7.40;;
12222;SDS011;6174;49.058;8.524;2022-11-14T18:43:26;9.03;;;7.87;;
12222;SDS011;6174;49.058;8.524;2022-11-14T18:45:55;9.10;;;8.20;;
12222;SDS011;6174;49.058;8.524;2022-11-14T18:48:29;9.20;;;8.30;;
12222;SDS011;6174;49.058;8.524;2022-11-14T18:50:58;9.73;;;8.73;;
12222;SDS011;6174;49.058;8.524;2022-11-14T18:53:28;8.57;;;7.50;;
12222;SDS011;6174;49.058;8.524;2022-11-14T18:55:55;7.27;;;6.63;;
12222;SDS011;6174;49.058;8.524;2022-11-14T18:58:22;7.97;;;7.27;;
12222;SDS011;6174;49.058;8.524;2022-11-14T19:00:51;14.63;;;11.67;;
12222;SDS011;6174;49.058;8.524;2022-11-14T19:03:17;10.33;;;8.73;;
12222;SDS011;6174;49.058;8.524;2022-11-14T19:05:44;13.70;;;11.33;;
12222;SDS011;6174;49.058;8.524;2022-11-14T19:08:11;11.23;;;9.93;;
12222;SDS011;6174;49.058;8.524;2022-11-14T19:10:38;9.87;;;8.77;;
12222;SDS011;6174;49.058;8.524;2022-11-14T19:13:04;7.97;;;7.17;;
12222;SDS011;6174;49.058;8.524;2022-11-14T19:15:31;7.83;;;7.13;;
12222;SDS011;6174;49.058;8.524;2022-11-14T19:17:59;8.60;;;7.40;;
12222;SDS011;6174;49.058;8.524;2022-11-14T19:20:26;11.57;;;10.37;;
12222;SDS011;6174;49.058;8.524;2022-11-14T19:22:53;10.43;;;9.43;;
12222;SDS011;6174;49.058;8.524;2022-11-14T19:25:19;10.47;;;9.40;;
12222;SDS011;6174;49.058;8.524;2022-11-14T19:27:48;8.17;;;7.47;;
12222;SDS011;6174;49.058;8.524;2022-11-14T19:30:15;8.80;;;7.90;;
12222;SDS011;6174;49.058;8.524;2022-11-14T19:32:42;8.03;;;7.37;;
12222;SDS011;6174;49.058;8.524;2022-11-14T19:35:10;16.40;;;14.80;;
12222;SDS011;6174;49.058;8.524;2022-11-14T19:37:38;13.67;;;12.40;;
12222;SDS011;6174;49.058;8.524;2022-11-14T19:40:05;13.77;;;12.10;;
12222;SDS011;6174;49.058;8.524;2022-11-14T19:42:32;12.37;;;11.17;;
12222;SDS011;6174;49.058;8.524;2022-11-14T19:44:59;12.23;;;11.13;;
12222;SDS011;6174;49.058;8.524;2022-11-14T19:47:26;11.73;;;10.53;;
12222;SDS011;6174;49.058;8.524;2022-11-14T19:49:53;12.03;;;10.00;;
12222;SDS011;6174;49.058;8.524;2022-11-14T19:52:21;11.93;;;10.63;;
12222;SDS011;6174;49.058;8.524;2022-11-14T19:54:47;9.30;;;8.23;;
12222;SDS011;6174;49.058;8.524;2022-11-14T19:57:15;8.93;;;7.40;;
12222;SDS011;6174;49.058;8.524;2022-11-14T19:59:42;9.43;;;8.53;;
12222;SDS011;6174;49.058;8.524;2022-11-14T20:02:11;9.03;;;8.03;;
12222;SDS011;6174;49.058;8.524;2022-11-14T20:04:38;12.33;;;10.90;;
12222;SDS011;6174;49.058;8.524;2022-11-14T20:07:05;23.10;;;19.87;;
12222;SDS011;6174;49.058;8.524;2022-11-14T20:09:33;21.53;;;18.10;;
12222;SDS011;6174;49.058;8.524;2022-11-14T20:12:00;27.33;;;21.07;;
12222;SDS011;6174;49.058;8.524;2022-11-14T20:14:27;24.03;;;18.80;;
12222;SDS011;6174;49.058;8.524;2022-11-14T20:16:54;20.17;;;16.37;;
12222;SDS011;6174;49.058;8.524;2022-11-14T20:19:20;18.43;;;14.50;;
12222;SDS011;6174;49.058;8.524;2022-11-14T20:21:47;14.63;;;12.63;;
12222;SDS011;6174;49.058;8.524;2022-11-14T20:24:14;13.07;;;11.60;;
12222;SDS011;6174;49.058;8.524;2022-11-14T20:26:46;12.90;;;11.50;;
12222;SDS011;6174;49.058;8.524;2022-11-14T20:29:13;17.33;;;14.87;;
12222;SDS011;6174;49.058;8.524;2022-11-14T20:31:40;19.77;;;16.93;;
12222;SDS011;6174;49.058;8.524;2022-11-14T20:34:07;16.17;;;14.50;;
12222;SDS011;6174;49.058;8.524;2022-11-14T20:36:35;21.67;;;17.37;;
12222;SDS011;6174;49.058;8.524;2022-11-14T20:39:02;19.23;;;16.13;;
12222;SDS011;6174;49.058;8.524;2022-11-14T20:41:32;21.40;;;16.90;;
12222;SDS011;6174;49.058;8.524;2022-11-14T20:44:00;20.47;;;17.00;;
12222;SDS011;6174;49.058;8.524;2022-11-14T20:46:28;21.83;;;16.53;;